sensor_id;sensor_type;location;lat;lon;timestamp;P1;durP1;ratioP1;P2;durP2;ratioP2
15536;SDS011;7870;52.448;13.270;2023-04-15T00:00:56;32.28;;;28.30;;
15536;SDS011;7870;52.448;13.270;2023-04-15T00:03:23;31.83;;;28.50;;
15536;SDS011;7870;52.448;13.270;2023-04-15T00:05:50;32.70;;;29.17;;
15536;SDS011;7870;52.448;13.270;2023-04-15T00:08:17;35.95;;;32.00;;
15536;SDS011;7870;52.448;13.270;2023-04-15T00:10:44;32.13;;;28.80;;
15536;SDS011;7870;52.448;13.270;2023-04-15T00:13:12;32.00;;;28.58;;
15536;SDS011;7870;52.448;13.270;2023-04-15T00:15:38;34.15;;;30.42;;
15536;SDS011;7870;52.448;13.270;2023-04-15T00:18:05;34.78;;;30.98;;
15536;SDS011;7870;52.448;13.270;2023-04-15T00:20:33;34.42;;;30.73;;
15536;SDS011;7870;52.448;13.270;2023-04-15T00:23:00;32.00;;;28.73;;
15536;SDS011;7870;52.448;13.270;2023-04-15T00:25:27;32.95;;;29.63;;
15536;SDS011;7870;52.448;13.270;2023-04-15T00:27:54;33.40;;;30.02;;
15536;SDS011;7870;52.448;13.270;2023-04-15T00:30:21;35.83;;;31.88;;
15536;SDS011;7870;52.448;13.270;2023-04-15T00:32:49;37.08;;;33.00;;
15536;SDS011;7870;52.448;13.270;2023-04-15T00:35:19;36.10;;;32.20;;
15536;SDS011;7870;52.448;13.270;2023-04-15T00:37:48;36.10;;;31.45;;
15536;SDS011;7870;52.448;13.270;2023-04-15T00:40:15;40.80;;;35.72;;
15536;SDS011;7870;52.448;13.270;2023-04-15T00:42:43;44.47;;;36.10;;
15536;SDS011;7870;52.448;13.270;2023-04-15T00:45:10;38.90;;;33.30;;
15536;SDS011;7870;52.448;13.270;2023-04-15T00:47:37;37.80;;;33.80;;
15536;SDS011;7870;52.448;13.270;2023-04-15T00:50:04;45.90;;;35.95;;
15536;SDS011;7870;52.448;13.270;2023-04-15T00:52:31;38.45;;;34.30;;
15536;SDS011;7870;52.448;13.270;2023-04-15T00:54:58;38.47;;;34.38;;
15536;SDS011;7870;52.448;13.270;2023-04-15T00:57:25;42.17;;;36.10;;
15536;SDS011;7870;52.448;13.270;2023-04-15T00:59:52;44.88;;;38.67;;
15536;SDS011;7870;52.448;13.270;2023-04-15T01:02:21;43.72;;;36.08;;
15536;SDS011;7870;52.448;13.270;2023-04-15T01:04:48;40.80;;;34.40;;
15536;SDS011;7870;52.448;13.270;2023-04-15T01:07:15;42.60;;;35.55;;
15536;SDS011;7870;52.448;13.270;2023-04-15T01:09:42;43.08;;;37.42;;
15536;SDS011;7870;52.448;13.270;2023-04-15T01:12:09;42.30;;;36.95;;
15536;SDS011;7870;52.448;13.270;2023-04-15T01:14:38;51.15;;;39.88;;
15536;SDS011;7870;52.448;13.270;2023-04-15T01:17:04;44.92;;;37.60;;
15536;SDS011;7870;52.448;13.270;2023-04-15T01:19:31;46.25;;;38.25;;
15536;SDS011;7870;52.448;13.270;2023-04-15T01:21:58;48.67;;;39.47;;
15536;SDS011;7870;52.448;13.270;2023-04-15T01:24:25;51.40;;;40.60;;
15536;SDS011;7870;52.448;13.270;2023-04-15T01:26:53;44.97;;;36.85;;
15536;SDS011;7870;52.448;13.270;2023-04-15T01:29:22;48.25;;;40.05;;
15536;SDS011;7870;52.448;13.270;2023-04-15T01:31:49;53.60;;;42.30;;
15536;SDS011;7870;52.448;13.270;2023-04-15T01:34:17;48.30;;;39.42;;
15536;SDS011;7870;52.448;13.270;2023-04-15T01:36:44;56.72;;;43.10;;
15536;SDS011;7870;52.448;13.270;2023-04-15T01:39:12;57.08;;;42.88;;
15536;SDS011;7870;52.448;13.270;2023-04-15T01:41:38;48.28;;;40.78;;
15536;SDS011;7870;52.448;13.270;2023-04-15T01:44:08;47.80;;;40.67;;
15536;SDS011;7870;52.448;13.270;2023-04-15T01:46:35;47.17;;;40.72;;
15536;SDS011;7870;52.448;13.270;2023-04-15T01:49:02;51.22;;;42.00;;
15536;SDS011;7870;52.448;13.270;2023-04-15T01:51:30;55.30;;;41.80;;
15536;SDS011;7870;52.448;13.270;2023-04-15T01:53:57;46.22;;;40.08;;
15536;SDS011;7870;52.448;13.270;2023-04-15T01:56:23;53.20;;;42.15;;
15536;SDS011;7870;52.448;13.270;2023-04-15T01:58:50;51.40;;;41.28;;
15536;SDS011;7870;52.448;13.270;2023-04-15T02:01:17;52.67;;;43.90;;
15536;SDS011;7870;52.448;13.270;2023-04-15T02:03:47;50.83;;;42.58;;
15536;SDS011;7870;52.448;13.270;2023-04-15T02:06:14;49.67;;;41.10;;
15536;SDS011;7870;52.448;13.270;2023-04-15T02:08:41;51.60;;;42.45;;
15536;SDS011;7870;52.448;13.270;2023-04-15T02:11:07;59.83;;;45.08;;
15536;SDS011;7870;52.448;13.270;2023-04-15T02:13:34;55.60;;;44.38;;
15536;SDS011;7870;52.448;13.270;2023-04-15T02:16:01;54.40;;;41.72;;
15536;SDS011;7870;52.448;13.270;2023-04-15T02:18:28;65.57;;;47.30;;
15536;SDS011;7870;52.448;13.270;2023-04-15T02:20:55;51.40;;;41.90;;
15536;SDS011;7870;52.448;13.270;2023-04-15T02:23:23;61.40;;;45.72;;
15536;SDS011;7870;52.448;13.270;2023-04-15T02:25:50;53.45;;;41.45;;
15536;SDS011;7870;52.448;13.270;2023-04-15T02:28:19;60.92;;;47.65;;
15536;SDS011;7870;52.448;13.270;2023-04-15T02:30:46;53.72;;;43.10;;
15536;SDS011;7870;52.448;13.270;2023-04-15T02:33:15;59.25;;;44.85;;
15536;SDS011;7870;52.448;13.270;2023-04-15T02:35:42;56.80;;;43.55;;
15536;SDS011;7870;52.448;13.270;2023-04-15T02:38:10;51.10;;;40.67;;
15536;SDS011;7870;52.448;13.270;2023-04-15T02:40:37;59.85;;;44.22;;
15536;SDS011;7870;52.448;13.270;2023-04-15T02:43:05;65.07;;;47.80;;
15536;SDS011;7870;52.448;13.270;2023-04-15T02:45:33;66.00;;;48.92;;
15536;SDS011;7870;52.448;13.270;2023-04-15T02:48:01;69.07;;;47.97;;
15536;SDS011;7870;52.448;13.270;2023-04-15T02:50:31;64.72;;;45.03;;
15536;SDS011;7870;52.448;13.270;2023-04-15T02:52:58;61.10;;;46.75;;
15536;SDS011;7870;52.448;13.270;2023-04-15T02:55:27;65.03;;;47.22;;
15536;SDS011;7870;52.448;13.270;2023-04-15T02:57:54;58.80;;;44.53;;
15536;SDS011;7870;52.448;13.270;2023-04-15T03:00:21;58.83;;;45.58;;
15536;SDS011;7870;52.448;13.270;2023-04-15T03:02:50;69.65;;;49.45;;
15536;SDS011;7870;52.448;13.270;2023-04-15T03:05:21;66.55;;;48.35;;
15536;SDS011;7870;52.448;13.270;2023-04-15T03:07:51;69.45;;;48.53;;
15536;SDS011;7870;52.448;13.270;2023-04-15T03:10:19;67.07;;;48.15;;
15536;SDS011;7870;52.448;13.270;2023-04-15T03:12:46;67.57;;;47.55;;
15536;SDS011;7870;52.448;13.270;2023-04-15T03:15:18;53.85;;;42.67;;
15536;SDS011;7870;52.448;13.270;2023-04-15T03:17:47;64.60;;;47.85;;
15536;SDS011;7870;52.448;13.270;2023-04-15T03:20:15;66.80;;;48.67;;
15536;SDS011;7870;52.448;13.270;2023-04-15T03:22:42;64.97;;;46.40;;
15536;SDS011;7870;52.448;13.270;2023-04-15T03:25:08;60.72;;;46.40;;
15536;SDS011;7870;52.448;13.270;2023-04-15T03:27:37;68.55;;;48.20;;
15536;SDS011;7870;52.448;13.270;2023-04-15T03:30:04;62.05;;;46.15;;
15536;SDS011;7870;52.448;13.270;2023-04-15T03:32:34;63.33;;;46.03;;
15536;SDS011;7870;52.448;13.270;2023-04-15T03:35:01;66.22;;;47.63;;
15536;SDS011;7870;52.448;13.270;2023-04-15T03:37:28;58.85;;;44.67;;
15536;SDS011;7870;52.448;13.270;2023-04-15T03:39:54;57.70;;;43.08;;
15536;SDS011;7870;52.448;13.270;2023-04-15T03:42:21;63.25;;;46.63;;
15536;SDS011;7870;52.448;13.270;2023-04-15T03:44:47;55.17;;;43.55;;
15536;SDS011;7870;52.448;13.270;2023-04-15T03:47:14;62.33;;;46.28;;
15536;SDS011;7870;52.448;13.270;2023-04-15T03:49:40;55.28;;;43.10;;
15536;SDS011;7870;52.448;13.270;2023-04-15T03:52:07;59.00;;;45.50;;
15536;SDS011;7870;52.448;13.270;2023-04-15T03:54:33;59.88;;;44.95;;
15536;SDS011;7870;52.448;13.270;2023-04-15T03:57:00;61.65;;;44.90;;
15536;SDS011;7870;52.448;13.270;2023-04-15T03:59:26;58.10;;;42.47;;
15536;SDS011;7870;52.448;13.270;2023-04-15T04:01:53;56.83;;;42.28;;
15536;SDS011;7870;52.448;13.270;2023-04-15T04:04:20;63.20;;;45.25;;
15536;SDS011;7870;52.448;13.270;2023-04-15T04:06:46;58.58;;;43.55;;
15536;SDS011;7870;52.448;13.270;2023-04-15T04:09:13;52.70;;;41.35;;
15536;SDS011;7870;52.448;13.270;2023-04-15T04:11:39;51.28;;;40.30;;
15536;SDS011;7870;52.448;13.270;2023-04-15T04:14:06;54.33;;;41.60;;
15536;SDS011;7870;52.448;13.270;2023-04-15T04:16:32;55.00;;;39.35;;
15536;SDS011;7870;52.448;13.270;2023-04-15T04:18:59;47.30;;;38.40;;
15536;SDS011;7870;52.448;13.270;2023-04-15T04:21:26;47.75;;;39.20;;
15536;SDS011;7870;52.448;13.270;2023-04-15T04:23:53;49.45;;;38.90;;
15536;SDS011;7870;52.448;13.270;2023-04-15T04:26:19;44.17;;;36.95;;
15536;SDS011;7870;52.448;13.270;2023-04-15T04:28:46;46.45;;;36.95;;
15536;SDS011;7870;52.448;13.270;2023-04-15T04:31:13;44.20;;;35.95;;
15536;SDS011;7870;52.448;13.270;2023-04-15T04:33:39;43.67;;;35.95;;
15536;SDS011;7870;52.448;13.270;2023-04-15T04:36:06;50.10;;;37.22;;
15536;SDS011;7870;52.448;13.270;2023-04-15T04:38:32;45.50;;;35.45;;
15536;SDS011;7870;52.448;13.270;2023-04-15T04:40:59;44.22;;;36.60;;
15536;SDS011;7870;52.448;13.270;2023-04-15T04:43:25;44.75;;;36.50;;
15536;SDS011;7870;52.448;13.270;2023-04-15T04:45:52;45.65;;;36.15;;
15536;SDS011;7870;52.448;13.270;2023-04-15T04:48:19;47.28;;;38.10;;
15536;SDS011;7870;52.448;13.270;2023-04-15T04:50:45;43.40;;;36.85;;
15536;SDS011;7870;52.448;13.270;2023-04-15T04:53:12;42.25;;;35.13;;
15536;SDS011;7870;52.448;13.270;2023-04-15T04:55:38;42.40;;;36.10;;
15536;SDS011;7870;52.448;13.270;2023-04-15T04:58:05;47.53;;;36.25;;
15536;SDS011;7870;52.448;13.270;2023-04-15T05:00:32;38.78;;;32.47;;
15536;SDS011;7870;52.448;13.270;2023-04-15T05:02:58;44.58;;;34.60;;
15536;SDS011;7870;52.448;13.270;2023-04-15T05:05:26;38.08;;;33.10;;
15536;SDS011;7870;52.448;13.270;2023-04-15T05:07:52;38.63;;;33.00;;
15536;SDS011;7870;52.448;13.270;2023-04-15T05:10:19;36.30;;;31.85;;
15536;SDS011;7870;52.448;13.270;2023-04-15T05:12:45;36.75;;;31.00;;
15536;SDS011;7870;52.448;13.270;2023-04-15T05:15:12;37.15;;;33.00;;
15536;SDS011;7870;52.448;13.270;2023-04-15T05:17:38;38.13;;;31.75;;
15536;SDS011;7870;52.448;13.270;2023-04-15T05:20:05;38.35;;;32.00;;
15536;SDS011;7870;52.448;13.270;2023-04-15T05:22:32;36.08;;;31.02;;
15536;SDS011;7870;52.448;13.270;2023-04-15T05:24:59;35.55;;;31.40;;
15536;SDS011;7870;52.448;13.270;2023-04-15T05:27:25;34.22;;;30.52;;
15536;SDS011;7870;52.448;13.270;2023-04-15T05:29:52;37.90;;;30.55;;
15536;SDS011;7870;52.448;13.270;2023-04-15T05:32:18;36.92;;;30.92;;
15536;SDS011;7870;52.448;13.270;2023-04-15T05:34:45;35.67;;;29.60;;
15536;SDS011;7870;52.448;13.270;2023-04-15T05:37:12;33.17;;;29.50;;
15536;SDS011;7870;52.448;13.270;2023-04-15T05:39:38;34.53;;;29.70;;
15536;SDS011;7870;52.448;13.270;2023-04-15T05:42:05;32.53;;;28.70;;
15536;SDS011;7870;52.448;13.270;2023-04-15T05:44:31;31.67;;;28.40;;
15536;SDS011;7870;52.448;13.270;2023-04-15T05:46:58;33.45;;;29.95;;
15536;SDS011;7870;52.448;13.270;2023-04-15T05:49:25;31.88;;;28.67;;
15536;SDS011;7870;52.448;13.270;2023-04-15T05:51:51;29.80;;;26.33;;
15536;SDS011;7870;52.448;13.270;2023-04-15T05:54:18;30.70;;;27.48;;
15536;SDS011;7870;52.448;13.270;2023-04-15T05:56:45;29.67;;;26.48;;
15536;SDS011;7870;52.448;13.270;2023-04-15T05:59:12;29.02;;;25.92;;
15536;SDS011;7870;52.448;13.270;2023-04-15T06:01:38;27.38;;;24.23;;
15536;SDS011;7870;52.448;13.270;2023-04-15T06:04:05;27.42;;;24.58;;
15536;SDS011;7870;52.448;13.270;2023-04-15T06:06:32;27.33;;;24.25;;
15536;SDS011;7870;52.448;13.270;2023-04-15T06:08:58;26.67;;;23.88;;
15536;SDS011;7870;52.448;13.270;2023-04-15T06:11:25;25.73;;;23.02;;
15536;SDS011;7870;52.448;13.270;2023-04-15T06:13:52;26.40;;;22.45;;
15536;SDS011;7870;52.448;13.270;2023-04-15T06:16:18;24.05;;;21.65;;
15536;SDS011;7870;52.448;13.270;2023-04-15T06:18:45;23.30;;;20.88;;
15536;SDS011;7870;52.448;13.270;2023-04-15T06:21:11;24.83;;;22.00;;
15536;SDS011;7870;52.448;13.270;2023-04-15T06:23:38;25.10;;;22.67;;
15536;SDS011;7870;52.448;13.270;2023-04-15T06:26:06;22.85;;;20.48;;
15536;SDS011;7870;52.448;13.270;2023-04-15T06:28:33;23.23;;;20.92;;
15536;SDS011;7870;52.448;13.270;2023-04-15T06:30:59;23.33;;;20.90;;
15536;SDS011;7870;52.448;13.270;2023-04-15T06:33:27;24.15;;;20.35;;
15536;SDS011;7870;52.448;13.270;2023-04-15T06:35:53;22.40;;;19.80;;
15536;SDS011;7870;52.448;13.270;2023-04-15T06:38:20;23.70;;;19.15;;
15536;SDS011;7870;52.448;13.270;2023-04-15T06:56:50;18.77;;;16.88;;
15536;SDS011;7870;52.448;13.270;2023-04-15T06:59:17;18.10;;;15.65;;
15536;SDS011;7870;52.448;13.270;2023-04-15T07:01:44;18.25;;;15.93;;
15536;SDS011;7870;52.448;13.270;2023-04-15T07:04:10;19.58;;;17.25;;
15536;SDS011;7870;52.448;13.270;2023-04-15T07:06:37;18.35;;;16.30;;
15536;SDS011;7870;52.448;13.270;2023-04-15T07:09:04;16.63;;;14.93;;
15536;SDS011;7870;52.448;13.270;2023-04-15T07:11:31;17.25;;;15.38;;
15536;SDS011;7870;52.448;13.270;2023-04-15T07:13:58;15.88;;;14.23;;
15536;SDS011;7870;52.448;13.270;2023-04-15T07:16:24;16.88;;;15.23;;
15536;SDS011;7870;52.448;13.270;2023-04-15T07:18:54;16.25;;;14.65;;
15536;SDS011;7870;52.448;13.270;2023-04-15T07:21:21;15.60;;;14.00;;
15536;SDS011;7870;52.448;13.270;2023-04-15T07:23:48;18.60;;;14.55;;
15536;SDS011;7870;52.448;13.270;2023-04-15T07:26:14;15.27;;;13.73;;
15536;SDS011;7870;52.448;13.270;2023-04-15T07:28:41;17.55;;;15.32;;
15536;SDS011;7870;52.448;13.270;2023-04-15T07:31:07;16.30;;;14.80;;
15536;SDS011;7870;52.448;13.270;2023-04-15T07:33:34;15.55;;;14.05;;
15536;SDS011;7870;52.448;13.270;2023-04-15T07:36:01;16.02;;;14.43;;
15536;SDS011;7870;52.448;13.270;2023-04-15T07:38:27;15.05;;;13.65;;
15536;SDS011;7870;52.448;13.270;2023-04-15T07:40:57;17.45;;;15.38;;
15536;SDS011;7870;52.448;13.270;2023-04-15T07:43:30;16.27;;;14.75;;
15536;SDS011;7870;52.448;13.270;2023-04-15T07:45:57;20.77;;;14.80;;
15536;SDS011;7870;52.448;13.270;2023-04-15T07:48:24;14.82;;;13.30;;
15536;SDS011;7870;52.448;13.270;2023-04-15T07:50:52;15.65;;;14.05;;
15536;SDS011;7870;52.448;13.270;2023-04-15T07:53:19;15.02;;;13.45;;
15536;SDS011;7870;52.448;13.270;2023-04-15T07:55:46;15.48;;;13.85;;
15536;SDS011;7870;52.448;13.270;2023-04-15T07:58:13;16.90;;;14.55;;
15536;SDS011;7870;52.448;13.270;2023-04-15T08:00:39;17.40;;;15.13;;
15536;SDS011;7870;52.448;13.270;2023-04-15T08:03:06;16.67;;;14.90;;
15536;SDS011;7870;52.448;13.270;2023-04-15T08:05:33;16.65;;;15.02;;
15536;SDS011;7870;52.448;13.270;2023-04-15T08:08:00;16.63;;;14.20;;
15536;SDS011;7870;52.448;13.270;2023-04-15T08:10:28;15.25;;;13.65;;
15536;SDS011;7870;52.448;13.270;2023-04-15T08:12:54;15.75;;;13.88;;
15536;SDS011;7870;52.448;13.270;2023-04-15T08:15:21;17.60;;;15.73;;
15536;SDS011;7870;52.448;13.270;2023-04-15T08:17:48;17.48;;;15.88;;
15536;SDS011;7870;52.448;13.270;2023-04-15T08:20:15;15.95;;;14.35;;
15536;SDS011;7870;52.448;13.270;2023-04-15T08:22:42;16.65;;;15.13;;
15536;SDS011;7870;52.448;13.270;2023-04-15T08:25:08;17.02;;;15.43;;
15536;SDS011;7870;52.448;13.270;2023-04-15T08:27:35;17.13;;;15.52;;
15536;SDS011;7870;52.448;13.270;2023-04-15T08:30:02;16.48;;;14.88;;
15536;SDS011;7870;52.448;13.270;2023-04-15T08:32:30;16.63;;;14.93;;
15536;SDS011;7870;52.448;13.270;2023-04-15T08:34:57;16.73;;;15.13;;
15536;SDS011;7870;52.448;13.270;2023-04-15T08:37:23;17.52;;;15.70;;
15536;SDS011;7870;52.448;13.270;2023-04-15T08:39:50;16.40;;;14.90;;
15536;SDS011;7870;52.448;13.270;2023-04-15T08:42:16;17.33;;;15.60;;
15536;SDS011;7870;52.448;13.270;2023-04-15T08:44:44;17.63;;;15.77;;
15536;SDS011;7870;52.448;13.270;2023-04-15T08:47:12;16.85;;;15.32;;
15536;SDS011;7870;52.448;13.270;2023-04-15T08:49:39;19.77;;;17.92;;
15536;SDS011;7870;52.448;13.270;2023-04-15T08:52:07;16.48;;;14.82;;
15536;SDS011;7870;52.448;13.270;2023-04-15T08:54:34;17.65;;;16.05;;
15536;SDS011;7870;52.448;13.270;2023-04-15T08:57:01;16.23;;;14.73;;
15536;SDS011;7870;52.448;13.270;2023-04-15T08:59:29;17.63;;;16.00;;
15536;SDS011;7870;52.448;13.270;2023-04-15T09:01:56;16.52;;;15.02;;
15536;SDS011;7870;52.448;13.270;2023-04-15T09:04:24;17.13;;;15.43;;
15536;SDS011;7870;52.448;13.270;2023-04-15T09:06:50;17.75;;;16.08;;
15536;SDS011;7870;52.448;13.270;2023-04-15T09:09:17;17.67;;;16.02;;
15536;SDS011;7870;52.448;13.270;2023-04-15T09:11:44;17.15;;;15.65;;
15536;SDS011;7870;52.448;13.270;2023-04-15T09:14:11;18.10;;;16.50;;
15536;SDS011;7870;52.448;13.270;2023-04-15T09:19:24;17.45;;;15.75;;
15536;SDS011;7870;52.448;13.270;2023-04-15T09:21:55;16.65;;;15.02;;
15536;SDS011;7870;52.448;13.270;2023-04-15T09:24:25;16.83;;;15.32;;
15536;SDS011;7870;52.448;13.270;2023-04-15T09:27:02;17.15;;;15.65;;
15536;SDS011;7870;52.448;13.270;2023-04-15T09:29:29;16.70;;;15.07;;
15536;SDS011;7870;52.448;13.270;2023-04-15T09:32:07;17.02;;;15.50;;
15536;SDS011;7870;52.448;13.270;2023-04-15T09:34:38;17.27;;;15.57;;
15536;SDS011;7870;52.448;13.270;2023-04-15T09:37:05;17.85;;;16.20;;
15536;SDS011;7870;52.448;13.270;2023-04-15T09:39:48;17.40;;;15.77;;
15536;SDS011;7870;52.448;13.270;2023-04-15T09:42:17;17.50;;;16.00;;
15536;SDS011;7870;52.448;13.270;2023-04-15T09:44:50;16.65;;;14.90;;
15536;SDS011;7870;52.448;13.270;2023-04-15T09:47:28;16.92;;;15.27;;
15536;SDS011;7870;52.448;13.270;2023-04-15T09:49:58;16.83;;;15.32;;
15536;SDS011;7870;52.448;13.270;2023-04-15T09:52:25;17.63;;;15.90;;
15536;SDS011;7870;52.448;13.270;2023-04-15T09:54:54;17.05;;;15.40;;
15536;SDS011;7870;52.448;13.270;2023-04-15T09:57:22;17.95;;;16.20;;
15536;SDS011;7870;52.448;13.270;2023-04-15T09:59:50;18.10;;;16.27;;
15536;SDS011;7870;52.448;13.270;2023-04-15T10:02:17;18.40;;;16.60;;
15536;SDS011;7870;52.448;13.270;2023-04-15T10:04:46;19.13;;;17.35;;
15536;SDS011;7870;52.448;13.270;2023-04-15T10:07:13;18.58;;;16.92;;
15536;SDS011;7870;52.448;13.270;2023-04-15T10:09:40;17.55;;;15.90;;
15536;SDS011;7870;52.448;13.270;2023-04-15T10:12:08;19.10;;;17.45;;
15536;SDS011;7870;52.448;13.270;2023-04-15T10:14:35;18.63;;;16.92;;
15536;SDS011;7870;52.448;13.270;2023-04-15T10:17:06;18.30;;;16.60;;
15536;SDS011;7870;52.448;13.270;2023-04-15T10:19:37;18.43;;;16.70;;
15536;SDS011;7870;52.448;13.270;2023-04-15T10:22:03;18.98;;;17.23;;
15536;SDS011;7870;52.448;13.270;2023-04-15T10:24:30;19.10;;;17.40;;
15536;SDS011;7870;52.448;13.270;2023-04-15T10:27:00;19.35;;;17.45;;
15536;SDS011;7870;52.448;13.270;2023-04-15T10:29:29;17.27;;;15.65;;
15536;SDS011;7870;52.448;13.270;2023-04-15T10:31:55;17.88;;;16.25;;
15536;SDS011;7870;52.448;13.270;2023-04-15T10:34:24;18.52;;;16.67;;
15536;SDS011;7870;52.448;13.270;2023-04-15T10:36:54;17.42;;;15.82;;
15536;SDS011;7870;52.448;13.270;2023-04-15T10:39:41;18.02;;;16.33;;
15536;SDS011;7870;52.448;13.270;2023-04-15T10:42:12;17.85;;;16.15;;
15536;SDS011;7870;52.448;13.270;2023-04-15T10:44:41;17.83;;;16.00;;
15536;SDS011;7870;52.448;13.270;2023-04-15T10:47:15;17.25;;;15.65;;
15536;SDS011;7870;52.448;13.270;2023-04-15T10:49:50;18.65;;;17.05;;
15536;SDS011;7870;52.448;13.270;2023-04-15T10:52:21;18.00;;;16.40;;
15536;SDS011;7870;52.448;13.270;2023-04-15T10:57:20;17.55;;;16.05;;
15536;SDS011;7870;52.448;13.270;2023-04-15T11:05:19;18.30;;;16.52;;
15536;SDS011;7870;52.448;13.270;2023-04-15T11:07:56;17.10;;;15.60;;
15536;SDS011;7870;52.448;13.270;2023-04-15T11:12:57;17.55;;;15.85;;
15536;SDS011;7870;52.448;13.270;2023-04-15T11:15:54;15.30;;;14.00;;
15536;SDS011;7870;52.448;13.270;2023-04-15T11:18:23;16.35;;;14.85;;
15536;SDS011;7870;52.448;13.270;2023-04-15T11:20:52;15.80;;;14.35;;
15536;SDS011;7870;52.448;13.270;2023-04-15T11:26:14;17.00;;;15.50;;
15536;SDS011;7870;52.448;13.270;2023-04-15T11:28:44;18.75;;;16.98;;
15536;SDS011;7870;52.448;13.270;2023-04-15T11:31:11;17.40;;;15.68;;
15536;SDS011;7870;52.448;13.270;2023-04-15T11:33:46;17.35;;;15.85;;
15536;SDS011;7870;52.448;13.270;2023-04-15T11:36:24;16.67;;;15.18;;
15536;SDS011;7870;52.448;13.270;2023-04-15T11:38:54;16.58;;;15.07;;
15536;SDS011;7870;52.448;13.270;2023-04-15T11:41:22;17.42;;;15.82;;
15536;SDS011;7870;52.448;13.270;2023-04-15T11:43:49;17.92;;;16.23;;
15536;SDS011;7870;52.448;13.270;2023-04-15T11:46:17;18.35;;;16.77;;
15536;SDS011;7870;52.448;13.270;2023-04-15T11:48:45;18.85;;;17.05;;
15536;SDS011;7870;52.448;13.270;2023-04-15T11:51:12;18.80;;;16.90;;
15536;SDS011;7870;52.448;13.270;2023-04-15T11:56:07;19.33;;;17.60;;
15536;SDS011;7870;52.448;13.270;2023-04-15T11:58:35;18.13;;;16.52;;
15536;SDS011;7870;52.448;13.270;2023-04-15T12:01:03;18.27;;;16.65;;
15536;SDS011;7870;52.448;13.270;2023-04-15T12:03:40;18.30;;;16.70;;
15536;SDS011;7870;52.448;13.270;2023-04-15T12:06:13;20.23;;;18.33;;
15536;SDS011;7870;52.448;13.270;2023-04-15T12:11:35;18.80;;;17.13;;
15536;SDS011;7870;52.448;13.270;2023-04-15T12:14:18;19.63;;;17.95;;
15536;SDS011;7870;52.448;13.270;2023-04-15T12:16:53;20.52;;;18.63;;
15536;SDS011;7870;52.448;13.270;2023-04-15T12:19:25;20.42;;;18.52;;
15536;SDS011;7870;52.448;13.270;2023-04-15T12:22:02;20.58;;;18.67;;
15536;SDS011;7870;52.448;13.270;2023-04-15T12:24:31;19.33;;;17.45;;
15536;SDS011;7870;52.448;13.270;2023-04-15T12:27:02;19.85;;;18.05;;
15536;SDS011;7870;52.448;13.270;2023-04-15T12:29:29;21.52;;;19.42;;
15536;SDS011;7870;52.448;13.270;2023-04-15T12:31:56;19.88;;;18.08;;
15536;SDS011;7870;52.448;13.270;2023-04-15T12:34:25;20.30;;;18.40;;
15536;SDS011;7870;52.448;13.270;2023-04-15T12:36:55;20.02;;;18.17;;
15536;SDS011;7870;52.448;13.270;2023-04-15T12:39:23;20.30;;;18.33;;
15536;SDS011;7870;52.448;13.270;2023-04-15T12:41:51;19.17;;;17.38;;
15536;SDS011;7870;52.448;13.270;2023-04-15T12:44:21;19.40;;;17.70;;
15536;SDS011;7870;52.448;13.270;2023-04-15T12:46:49;17.50;;;15.88;;
15536;SDS011;7870;52.448;13.270;2023-04-15T12:49:19;17.92;;;16.33;;
15536;SDS011;7870;52.448;13.270;2023-04-15T12:51:49;17.30;;;15.70;;
15536;SDS011;7870;52.448;13.270;2023-04-15T12:54:18;16.48;;;14.98;;
15536;SDS011;7870;52.448;13.270;2023-04-15T12:56:46;16.23;;;14.73;;
15536;SDS011;7870;52.448;13.270;2023-04-15T12:59:13;14.70;;;13.40;;
15536;SDS011;7870;52.448;13.270;2023-04-15T13:01:41;14.70;;;13.40;;
15536;SDS011;7870;52.448;13.270;2023-04-15T13:04:07;15.20;;;13.80;;
15536;SDS011;7870;52.448;13.270;2023-04-15T13:06:35;14.20;;;12.90;;
15536;SDS011;7870;52.448;13.270;2023-04-15T13:09:02;13.50;;;12.25;;
15536;SDS011;7870;52.448;13.270;2023-04-15T13:11:31;14.35;;;13.05;;
15536;SDS011;7870;52.448;13.270;2023-04-15T13:14:06;12.88;;;11.68;;
15536;SDS011;7870;52.448;13.270;2023-04-15T13:16:33;13.25;;;11.95;;
15536;SDS011;7870;52.448;13.270;2023-04-15T13:19:01;12.93;;;11.73;;
15536;SDS011;7870;52.448;13.270;2023-04-15T13:21:29;15.15;;;13.75;;
15536;SDS011;7870;52.448;13.270;2023-04-15T13:23:57;14.60;;;13.30;;
15536;SDS011;7870;52.448;13.270;2023-04-15T13:26:24;13.07;;;11.77;;
15536;SDS011;7870;52.448;13.270;2023-04-15T13:28:51;13.60;;;12.40;;
15536;SDS011;7870;52.448;13.270;2023-04-15T13:31:18;13.70;;;12.40;;
15536;SDS011;7870;52.448;13.270;2023-04-15T13:33:44;13.68;;;12.43;;
15536;SDS011;7870;52.448;13.270;2023-04-15T13:36:11;14.52;;;13.13;;
15536;SDS011;7870;52.448;13.270;2023-04-15T13:38:37;13.02;;;11.73;;
15536;SDS011;7870;52.448;13.270;2023-04-15T13:41:04;13.00;;;11.70;;
15536;SDS011;7870;52.448;13.270;2023-04-15T13:43:30;14.30;;;12.90;;
15536;SDS011;7870;52.448;13.270;2023-04-15T13:45:58;14.40;;;13.10;;
15536;SDS011;7870;52.448;13.270;2023-04-15T13:48:25;14.18;;;12.98;;
15536;SDS011;7870;52.448;13.270;2023-04-15T13:50:51;13.15;;;11.95;;
15536;SDS011;7870;52.448;13.270;2023-04-15T13:53:18;13.15;;;11.95;;
15536;SDS011;7870;52.448;13.270;2023-04-15T13:55:44;11.65;;;10.45;;
15536;SDS011;7870;52.448;13.270;2023-04-15T13:58:11;11.60;;;10.50;;
15536;SDS011;7870;52.448;13.270;2023-04-15T14:00:38;11.70;;;10.60;;
15536;SDS011;7870;52.448;13.270;2023-04-15T14:03:04;12.10;;;11.00;;
15536;SDS011;7870;52.448;13.270;2023-04-15T14:05:31;11.50;;;10.50;;
15536;SDS011;7870;52.448;13.270;2023-04-15T14:07:59;12.00;;;10.90;;
15536;SDS011;7870;52.448;13.270;2023-04-15T14:10:25;12.95;;;11.65;;
15536;SDS011;7870;52.448;13.270;2023-04-15T14:12:52;12.50;;;11.40;;
15536;SDS011;7870;52.448;13.270;2023-04-15T14:15:18;12.25;;;11.15;;
15536;SDS011;7870;52.448;13.270;2023-04-15T14:17:45;12.35;;;11.15;;
15536;SDS011;7870;52.448;13.270;2023-04-15T14:20:12;12.02;;;10.90;;
15536;SDS011;7870;52.448;13.270;2023-04-15T14:22:42;11.80;;;10.63;;
15536;SDS011;7870;52.448;13.270;2023-04-15T14:25:08;10.63;;;9.73;;
15536;SDS011;7870;52.448;13.270;2023-04-15T14:27:45;11.45;;;10.45;;
15536;SDS011;7870;52.448;13.270;2023-04-15T14:30:11;11.00;;;9.77;;
15536;SDS011;7870;52.448;13.270;2023-04-15T14:32:38;11.10;;;10.10;;
15536;SDS011;7870;52.448;13.270;2023-04-15T14:35:05;12.43;;;11.23;;
15536;SDS011;7870;52.448;13.270;2023-04-15T14:37:31;11.18;;;10.15;;
15536;SDS011;7870;52.448;13.270;2023-04-15T14:39:58;11.20;;;10.20;;
15536;SDS011;7870;52.448;13.270;2023-04-15T14:42:24;12.68;;;11.48;;
15536;SDS011;7870;52.448;13.270;2023-04-15T14:44:51;12.65;;;11.25;;
15536;SDS011;7870;52.448;13.270;2023-04-15T14:47:17;13.77;;;12.27;;
15536;SDS011;7870;52.448;13.270;2023-04-15T14:49:44;12.40;;;11.20;;
15536;SDS011;7870;52.448;13.270;2023-04-15T14:52:11;12.63;;;11.52;;
15536;SDS011;7870;52.448;13.270;2023-04-15T14:54:37;12.95;;;11.77;;
15536;SDS011;7870;52.448;13.270;2023-04-15T14:57:04;14.32;;;12.93;;
15536;SDS011;7870;52.448;13.270;2023-04-15T14:59:30;14.60;;;13.10;;
15536;SDS011;7870;52.448;13.270;2023-04-15T15:01:57;14.50;;;13.20;;